Terminal Aerodrome Forecast
Issued by NWS Greer, SC

Home | Current Version | Previous Version | Text Only | Print | Product List | Glossary On
Versions: 1 2 3 4 5 6 7 8 9 10 11 12 13 14 15 16 17 18 19 20 21 22 23 24 25 26 27 28 29 30 31 32 33 34 35 36 37 38 39 40
000
FTUS42 KGSP 290524
TAFAVL
TAF
KAVL 290524Z 2906/3006 32004KT P6SM SKC
     FM290900 VRB02KT 4SM BR SCT005
      TEMPO 2909/2913 1SM BR BKN005 BKN010
     FM291400 06003KT P6SM SCT070
     FM291700 18006KT P6SM SCT040 BKN070
     FM292000 32011KT P6SM SCT040 BKN070
     FM300300 33007KT P6SM SCT025=

USA.gov is the U.S. government's official web portal to all federal, state and local government web resources and services.